createdAt,value
2018-02-09T00:01:50.330Z,43.08
2018-02-09T00:04:18.607Z,42.30
2018-02-09T00:06:57.173Z,43.40
2018-02-09T00:09:27.152Z,47.65
2018-02-09T00:11:55.411Z,49.38
2018-02-09T00:14:24.459Z,55.83
2018-02-09T00:16:52.816Z,48.40
2018-02-09T00:19:21.854Z,49.88
2018-02-09T00:21:50.123Z,46.13
2018-02-09T00:24:18.390Z,46.53
2018-02-09T00:26:47.422Z,44.47
2018-02-09T00:29:15.706Z,49.58
2018-02-09T00:31:43.979Z,47.47
2018-02-09T00:34:45.166Z,45.97
2018-02-09T00:37:14.351Z,42.60
2018-02-09T00:39:43.399Z,41.78
2018-02-09T00:42:11.667Z,47.05
2018-02-09T00:44:39.945Z,44.08
2018-02-09T00:47:09.174Z,44.28
2018-02-09T00:49:37.454Z,46.03
2018-02-09T00:52:06.647Z,48.17
2018-02-09T00:54:34.953Z,47.03
2018-02-09T00:57:03.219Z,44.80
2018-02-09T00:59:32.255Z,42.10
2018-02-09T01:02:00.527Z,45.17
2018-02-09T01:04:28.807Z,40.85
2018-02-09T01:06:57.091Z,42.50
2018-02-09T01:09:27.049Z,43.17
2018-02-09T01:12:08.703Z,44.38
2018-02-09T01:14:37.959Z,44.80
2018-02-09T01:17:23.151Z,42.58
2018-02-09T01:19:51.426Z,45.65
2018-02-09T01:22:19.700Z,45.03
2018-02-09T01:24:55.246Z,46.37
2018-02-09T01:27:24.283Z,44.75
2018-02-09T01:29:52.587Z,46.10
2018-02-09T01:32:22.800Z,45.25
2018-02-09T01:34:51.087Z,42.67
2018-02-09T01:37:19.370Z,45.28
2018-02-09T01:39:47.666Z,42.40
2018-02-09T01:42:15.936Z,42.30
2018-02-09T01:44:45.908Z,40.70
2018-02-09T01:47:14.253Z,45.40
2018-02-09T01:49:43.286Z,44.50
2018-02-09T01:52:11.561Z,42.97
2018-02-09T01:54:39.832Z,43.25
2018-02-09T01:57:08.880Z,43.67
2018-02-09T01:59:37.164Z,46.58
2018-02-09T02:02:05.443Z,42.75
2018-02-09T02:04:51.784Z,45.08
2018-02-09T02:07:20.056Z,47.85
2018-02-09T02:09:48.328Z,45.80
2018-02-09T02:12:16.595Z,43.30
2018-02-09T02:14:45.648Z,44.08
2018-02-09T02:17:13.930Z,45.47
2018-02-09T02:19:42.207Z,45.20
2018-02-09T02:22:10.489Z,47.08
2018-02-09T02:24:38.795Z,52.45
2018-02-09T02:27:13.110Z,56.45
2018-02-09T02:29:41.391Z,54.58
2018-02-09T02:32:09.702Z,55.47
2018-02-09T02:34:37.998Z,56.65
2018-02-09T02:37:06.268Z,62.17
2018-02-09T02:39:34.572Z,63.67
2018-02-09T02:42:02.856Z,64.07
2018-02-09T02:44:31.136Z,65.53
2018-02-09T02:46:59.407Z,70.05
2018-02-09T02:49:27.684Z,74.12
2018-02-09T02:51:56.733Z,71.55
2018-02-09T02:54:25.016Z,66.43
2018-02-09T02:56:53.287Z,70.95
2018-02-09T02:59:21.577Z,69.93
2018-02-09T03:01:54.784Z,62.78
2018-02-09T03:04:23.065Z,57.13
2018-02-09T03:06:51.346Z,61.00
2018-02-09T03:09:24.195Z,57.10
2018-02-09T03:11:52.423Z,52.13
2018-02-09T03:14:20.721Z,56.05
2018-02-09T03:16:48.996Z,48.15
2018-02-09T03:19:18.292Z,51.55
2018-02-09T03:21:46.564Z,51.90
2018-02-09T03:24:14.854Z,52.25
2018-02-09T03:26:43.141Z,52.90
2018-02-09T03:29:11.419Z,51.35
2018-02-09T03:31:46.179Z,49.72
2018-02-09T03:34:14.461Z,48.28
2018-02-09T03:36:42.732Z,49.33
2018-02-09T03:39:11.017Z,45.42
2018-02-09T03:41:39.297Z,49.05
2018-02-09T03:44:07.582Z,47.53
2018-02-09T03:46:35.847Z,48.65
2018-02-09T03:49:04.905Z,44.42
2018-02-09T03:51:33.176Z,47.30
2018-02-09T03:54:01.447Z,50.20
2018-02-09T03:56:29.716Z,47.22
2018-02-09T03:58:57.999Z,49.38
2018-02-09T04:01:27.220Z,45.15
2018-02-09T04:03:55.502Z,47.53
2018-02-09T04:09:24.602Z,47.13
2018-02-09T04:11:52.886Z,46.90
2018-02-09T04:14:24.396Z,48.05
2018-02-09T04:16:52.667Z,51.78
2018-02-09T04:19:21.719Z,48.45
2018-02-09T04:21:49.995Z,49.22
2018-02-09T04:24:18.288Z,51.05
2018-02-09T04:26:46.568Z,49.65
2018-02-09T04:29:14.846Z,48.03
2018-02-09T04:31:43.144Z,48.83
2018-02-09T04:34:11.433Z,46.00
2018-02-09T04:36:39.718Z,44.45
2018-02-09T04:39:07.998Z,46.55
2018-02-09T04:41:36.289Z,51.13
2018-02-09T04:44:04.595Z,51.60
2018-02-09T04:46:32.871Z,52.30
2018-02-09T04:49:01.148Z,49.97
2018-02-09T04:51:30.192Z,50.15
2018-02-09T04:53:58.470Z,46.60
2018-02-09T04:56:26.755Z,50.10
2018-02-09T04:58:55.023Z,46.58
2018-02-09T05:01:24.265Z,47.38
2018-02-09T05:03:52.761Z,45.78
2018-02-09T05:06:21.044Z,45.50
2018-02-09T05:08:53.201Z,48.38
2018-02-09T05:11:21.484Z,48.45
2018-02-09T05:13:50.585Z,50.05
2018-02-09T05:16:19.637Z,47.97
2018-02-09T05:18:47.909Z,46.55
2018-02-09T05:21:17.108Z,50.63
2018-02-09T05:23:47.145Z,56.20
2018-02-09T05:26:16.086Z,69.05
2018-02-09T05:28:45.174Z,68.65
2018-02-09T05:31:13.464Z,69.40
2018-02-09T05:33:41.736Z,72.03
2018-02-09T05:36:10.020Z,70.15
2018-02-09T05:38:38.315Z,65.87
2018-02-09T05:41:06.610Z,61.08
2018-02-09T05:43:34.892Z,58.40
2018-02-09T05:46:03.168Z,58.75
2018-02-09T05:48:31.449Z,66.80
2018-02-09T05:50:59.750Z,64.28
2018-02-09T05:53:28.019Z,70.47
2018-02-09T05:55:56.303Z,67.78
2018-02-09T05:58:25.349Z,65.12
2018-02-09T06:00:53.627Z,63.25
2018-02-09T06:03:21.900Z,58.35
2018-02-09T06:05:50.194Z,58.28
2018-02-09T06:08:18.492Z,55.28
2018-02-09T06:10:46.795Z,55.72
2018-02-09T06:13:15.055Z,59.15
2018-02-09T06:15:43.344Z,62.00
2018-02-09T06:18:12.559Z,60.70
2018-02-09T06:20:40.869Z,58.70
2018-02-09T06:23:09.991Z,61.97
2018-02-09T06:25:38.284Z,57.15
2018-02-09T06:28:06.555Z,61.08
2018-02-09T06:30:37.905Z,58.42
2018-02-09T06:33:06.966Z,56.95
2018-02-09T06:35:36.027Z,60.22
2018-02-09T06:38:04.292Z,56.37
2018-02-09T06:40:32.575Z,58.15
2018-02-09T06:43:00.848Z,55.40
2018-02-09T06:45:33.565Z,54.70
2018-02-09T06:48:01.831Z,67.53
2018-02-09T06:50:31.601Z,66.30
2018-02-09T06:52:59.876Z,68.95
2018-02-09T06:55:29.192Z,67.22
2018-02-09T06:57:57.468Z,64.57
2018-02-09T07:00:25.779Z,67.32
2018-02-09T07:02:54.056Z,62.13
2018-02-09T07:05:30.607Z,60.72
2018-02-09T07:07:58.890Z,60.33
2018-02-09T07:10:27.955Z,59.83
2018-02-09T07:12:56.236Z,59.65
2018-02-09T07:15:24.532Z,56.85
2018-02-09T07:17:52.802Z,54.38
2018-02-09T07:20:21.088Z,56.20
2018-02-09T07:22:50.186Z,57.35
2018-02-09T07:25:18.473Z,55.92
2018-02-09T07:27:46.768Z,57.13
2018-02-09T07:30:15.045Z,58.83
2018-02-09T07:32:44.251Z,52.85
2018-02-09T07:35:12.536Z,58.00
2018-02-09T07:37:40.837Z,58.95
2018-02-09T07:40:09.132Z,54.90
2018-02-09T07:42:37.493Z,52.35
2018-02-09T07:45:05.837Z,51.83
2018-02-09T07:47:34.111Z,50.90
2018-02-09T07:50:02.375Z,51.03
2018-02-09T07:52:32.715Z,49.95
2018-02-09T07:55:00.981Z,49.15
2018-02-09T07:57:30.023Z,50.03
2018-02-09T07:59:58.322Z,51.80
2018-02-09T08:02:26.609Z,51.08
2018-02-09T08:04:54.892Z,46.05
2018-02-09T08:07:26.201Z,50.20
2018-02-09T08:09:55.287Z,47.67
2018-02-09T08:12:23.559Z,48.45
2018-02-09T08:14:51.829Z,46.60
2018-02-09T08:17:20.105Z,51.75
2018-02-09T08:19:48.378Z,50.17
2018-02-09T08:22:16.650Z,47.62
2018-02-09T08:24:46.287Z,50.45
2018-02-09T08:27:15.339Z,52.50
2018-02-09T08:29:43.641Z,52.92
2018-02-09T08:32:11.912Z,50.83
2018-02-09T08:34:40.181Z,52.10
2018-02-09T08:37:08.456Z,52.60
2018-02-09T08:39:36.721Z,48.42
2018-02-09T08:42:05.800Z,50.85
2018-02-09T08:44:34.719Z,53.60
2018-02-09T08:47:02.990Z,53.92
2018-02-09T08:49:31.263Z,50.75
2018-02-09T08:51:59.548Z,53.53
2018-02-09T08:54:28.048Z,56.70
2018-02-09T08:56:56.319Z,49.30
2018-02-09T08:59:24.596Z,57.08
2018-02-09T09:01:52.877Z,51.37
2018-02-09T09:04:21.135Z,52.97
2018-02-09T09:06:50.184Z,55.78
2018-02-09T09:09:18.458Z,51.42
2018-02-09T09:11:58.354Z,50.00
2018-02-09T09:14:27.640Z,51.50
2018-02-09T09:17:05.817Z,41.70
2018-02-09T09:19:34.084Z,53.17
2018-02-09T09:22:02.371Z,52.25
2018-02-09T09:24:35.227Z,52.33
2018-02-09T09:27:03.585Z,47.47
2018-02-09T09:29:31.865Z,48.92
2018-02-09T09:32:10.824Z,50.70
2018-02-09T09:34:40.502Z,46.50
2018-02-09T09:37:08.785Z,48.25
2018-02-09T09:39:37.845Z,48.17
2018-02-09T09:42:06.886Z,49.83
2018-02-09T09:44:35.151Z,48.20
2018-02-09T09:47:03.432Z,46.28
2018-02-09T09:49:48.835Z,46.40
2018-02-09T09:52:17.121Z,47.53
2018-02-09T09:54:56.055Z,46.25
2018-02-09T09:57:26.697Z,47.20
2018-02-09T09:59:59.541Z,44.95
2018-02-09T10:02:39.546Z,48.60
2018-02-09T10:05:23.302Z,48.40
2018-02-09T10:07:52.446Z,45.42
2018-02-09T10:10:21.726Z,43.70
2018-02-09T10:12:51.834Z,44.58
2018-02-09T10:15:27.605Z,43.22
2018-02-09T10:17:55.933Z,45.42
2018-02-09T10:20:25.390Z,46.67
2018-02-09T10:22:53.676Z,82.57
2018-02-09T10:25:23.686Z,66.18
2018-02-09T10:27:52.615Z,51.10
2018-02-09T10:30:31.853Z,73.37
2018-02-09T10:33:01.201Z,66.35
2018-02-09T10:35:43.239Z,72.47
2018-02-09T10:38:11.544Z,72.93
2018-02-09T10:40:39.820Z,72.97
2018-02-09T10:43:08.113Z,67.60
2018-02-09T10:45:36.394Z,70.22
2018-02-09T10:48:04.671Z,64.10
2018-02-09T10:50:32.931Z,68.22
2018-02-09T10:53:01.209Z,66.37
2018-02-09T10:55:29.463Z,65.05
2018-02-09T10:57:57.744Z,64.40
2018-02-09T11:00:31.618Z,69.22
2018-02-09T11:02:59.894Z,58.53
2018-02-09T11:05:28.153Z,48.15
2018-02-09T11:07:56.426Z,58.55
2018-02-09T11:10:37.321Z,58.47
2018-02-09T11:13:11.000Z,57.00
2018-02-09T11:15:40.040Z,71.78
2018-02-09T11:18:08.316Z,66.82
2018-02-09T11:20:36.579Z,56.90
2018-02-09T11:23:05.624Z,61.30
2018-02-09T11:25:33.906Z,69.62
2018-02-09T11:28:02.183Z,69.87
2018-02-09T11:30:30.790Z,69.30
2018-02-09T11:32:59.051Z,65.25
2018-02-09T11:35:28.086Z,56.15
2018-02-09T11:37:56.425Z,62.90
2018-02-09T11:40:24.697Z,51.37
2018-02-09T11:42:52.979Z,48.40
2018-02-09T11:45:21.239Z,63.80
2018-02-09T11:47:49.511Z,58.10
2018-02-09T11:50:17.773Z,51.08
2018-02-09T11:52:46.880Z,52.17
2018-02-09T11:55:15.096Z,46.45
2018-02-09T11:57:43.367Z,60.30
2018-02-09T12:00:12.391Z,63.90
2018-02-09T12:02:40.664Z,63.08
2018-02-09T12:05:09.697Z,61.78
2018-02-09T12:07:38.731Z,49.00
2018-02-09T12:10:06.996Z,53.03
2018-02-09T12:12:35.333Z,44.55
2018-02-09T12:15:03.557Z,45.40
2018-02-09T12:17:31.836Z,50.53
2018-02-09T12:20:00.112Z,47.72
2018-02-09T12:22:29.185Z,43.87
2018-02-09T12:24:57.457Z,39.40
2018-02-09T12:27:25.793Z,45.17
2018-02-09T12:29:56.766Z,45.15
2018-02-09T12:32:25.042Z,42.70
2018-02-09T12:34:54.068Z,39.80
2018-02-09T12:37:22.345Z,43.08
2018-02-09T12:39:50.625Z,55.90
2018-02-09T12:42:19.665Z,49.78
2018-02-09T12:44:47.933Z,44.80
2018-02-09T12:47:16.217Z,41.72
2018-02-09T12:49:44.492Z,39.47
2018-02-09T12:52:13.544Z,39.60
2018-02-09T12:54:41.822Z,41.22
2018-02-09T12:57:10.980Z,45.28
2018-02-09T12:59:39.248Z,50.08
2018-02-09T13:02:07.605Z,45.08
2018-02-09T13:04:35.905Z,47.80
2018-02-09T13:07:04.178Z,41.55
2018-02-09T13:09:32.452Z,48.38
2018-02-09T13:12:00.712Z,41.28
2018-02-09T13:14:47.412Z,45.35
2018-02-09T13:17:15.683Z,42.65
2018-02-09T13:19:43.964Z,42.70
2018-02-09T13:22:30.218Z,46.10
2018-02-09T13:24:58.593Z,39.75
2018-02-09T13:27:26.906Z,42.75
2018-02-09T13:29:55.953Z,46.00
2018-02-09T13:32:41.936Z,45.40
2018-02-09T13:35:11.071Z,46.40
2018-02-09T13:37:39.345Z,43.20
2018-02-09T13:40:07.610Z,51.30
2018-02-09T13:42:36.638Z,51.10
2018-02-09T13:45:04.984Z,49.55
2018-02-09T13:47:33.252Z,38.58
2018-02-09T13:50:01.536Z,41.75
2018-02-09T13:52:29.835Z,46.70
2018-02-09T13:54:58.115Z,48.75
2018-02-09T13:57:26.400Z,43.15
2018-02-09T13:59:54.680Z,56.17
2018-02-09T14:02:22.973Z,58.85
2018-02-09T14:04:52.850Z,56.85
2018-02-09T14:07:21.880Z,52.25
2018-02-09T14:09:50.143Z,60.58
2018-02-09T14:12:19.171Z,56.88
2018-02-09T14:14:47.452Z,50.75
2018-02-09T14:17:16.472Z,58.92
2018-02-09T14:19:44.758Z,57.80
2018-02-09T14:22:13.027Z,59.03
2018-02-09T14:24:42.060Z,55.50
2018-02-09T14:27:10.344Z,64.35
2018-02-09T14:29:38.623Z,56.47
2018-02-09T14:32:06.904Z,49.40
2018-02-09T14:34:35.245Z,55.50
2018-02-09T14:37:03.533Z,46.22
2018-02-09T14:39:31.800Z,45.83
2018-02-09T14:42:00.066Z,46.42
2018-02-09T14:44:38.247Z,44.03
2018-02-09T14:47:06.507Z,43.75
2018-02-09T14:49:34.934Z,45.40
2018-02-09T14:52:03.977Z,42.35
2018-02-09T14:54:32.252Z,41.63
2018-02-09T14:57:01.279Z,42.35
2018-02-09T14:59:29.583Z,42.20
2018-02-09T15:01:57.849Z,43.80
2018-02-09T15:04:26.115Z,41.80
2018-02-09T15:06:55.176Z,41.83
2018-02-09T15:09:23.528Z,42.38
2018-02-09T15:11:51.797Z,41.92
2018-02-09T15:14:20.840Z,43.42
2018-02-09T15:16:49.104Z,45.78
2018-02-09T15:19:18.145Z,41.45
2018-02-09T15:21:46.484Z,42.80
2018-02-09T15:24:15.515Z,42.70
2018-02-09T15:26:43.793Z,42.75
2018-02-09T15:29:12.824Z,41.50
2018-02-09T15:31:41.079Z,46.08
2018-02-09T15:34:09.344Z,42.42
2018-02-09T15:36:37.632Z,43.05
2018-02-09T15:39:05.890Z,48.30
2018-02-09T15:41:34.169Z,44.17
2018-02-09T15:44:02.431Z,42.67
2018-02-09T15:46:30.789Z,44.95
2018-02-09T15:48:59.062Z,49.72
2018-02-09T15:51:27.328Z,45.72
2018-02-09T15:53:55.589Z,44.53
2018-02-09T15:56:23.864Z,45.47
2018-02-09T15:58:52.904Z,46.67
2018-02-09T16:01:21.177Z,46.55
2018-02-09T16:03:49.442Z,43.67
2018-02-09T16:06:18.478Z,43.40
2018-02-09T16:08:46.740Z,44.40
2018-02-09T16:11:15.775Z,42.08
2018-02-09T16:13:44.052Z,43.95
2018-02-09T16:16:12.308Z,43.60
2018-02-09T16:18:40.563Z,42.83
2018-02-09T16:21:08.828Z,44.28
2018-02-09T16:23:37.093Z,41.08
2018-02-09T16:26:05.367Z,39.80
2018-02-09T16:28:34.415Z,43.83
2018-02-09T16:31:02.680Z,42.53
2018-02-09T16:33:30.945Z,40.28
2018-02-09T16:35:59.987Z,41.88
2018-02-09T16:38:28.243Z,41.35
2018-02-09T16:40:57.284Z,41.55
2018-02-09T16:43:25.654Z,41.72
2018-02-09T16:45:53.935Z,41.17
2018-02-09T16:48:22.965Z,40.08
2018-02-09T16:50:51.234Z,43.47
2018-02-09T16:53:19.486Z,39.85
2018-02-09T16:55:47.760Z,40.63
2018-02-09T16:58:16.030Z,41.00
2018-02-09T17:00:44.375Z,40.60
2018-02-09T17:03:13.409Z,39.38
2018-02-09T17:05:41.684Z,40.08
2018-02-09T17:08:10.265Z,38.25
2018-02-09T17:10:39.303Z,39.58
2018-02-09T17:13:07.569Z,37.80
2018-02-09T17:15:36.617Z,40.88
2018-02-09T17:18:04.877Z,38.00
2018-02-09T17:20:33.148Z,37.45
2018-02-09T17:23:02.169Z,38.65
2018-02-09T17:25:30.441Z,38.75
2018-02-09T17:27:59.464Z,38.13
2018-02-09T17:30:27.727Z,40.80
2018-02-09T17:32:56.753Z,40.45
2018-02-09T17:35:25.015Z,42.22
2018-02-09T17:37:53.271Z,40.90
2018-02-09T17:40:21.550Z,39.85
2018-02-09T17:42:49.828Z,41.65
2018-02-09T17:45:18.101Z,40.15
2018-02-09T17:47:46.364Z,38.88
2018-02-09T17:50:15.395Z,40.22
2018-02-09T17:52:43.661Z,41.40
2018-02-09T17:55:12.703Z,41.25
2018-02-09T17:57:40.963Z,39.65
2018-02-09T18:00:10.042Z,42.35
2018-02-09T18:02:38.296Z,43.33
2018-02-09T18:05:06.616Z,43.30
2018-02-09T18:07:35.604Z,39.28
2018-02-09T18:10:03.874Z,40.22
2018-02-09T18:12:32.149Z,39.78
2018-02-09T18:15:00.413Z,41.80
2018-02-09T18:17:35.799Z,42.03
2018-02-09T18:20:04.061Z,41.17
2018-02-09T18:22:32.336Z,43.13
2018-02-09T18:25:01.361Z,39.97
2018-02-09T18:27:29.624Z,42.60
2018-02-09T18:29:57.880Z,45.22
2018-02-09T18:32:26.144Z,43.47
2018-02-09T18:34:54.399Z,41.50
2018-02-09T18:37:23.470Z,41.15
2018-02-09T18:39:51.715Z,41.90
2018-02-09T18:42:20.002Z,46.67
2018-02-09T18:44:48.255Z,46.28
2018-02-09T18:47:16.534Z,50.28
2018-02-09T18:49:44.843Z,50.22
2018-02-09T18:52:13.089Z,51.10
2018-02-09T18:54:41.348Z,53.95
2018-02-09T18:57:09.617Z,59.92
2018-02-09T18:59:38.644Z,57.00
2018-02-09T19:02:06.917Z,60.88
2018-02-09T19:04:35.185Z,61.33
2018-02-09T19:07:04.230Z,62.83
2018-02-09T19:09:32.510Z,61.05
2018-02-09T19:12:00.782Z,63.80
2018-02-09T19:14:29.086Z,60.58
2018-02-09T19:16:57.361Z,64.78
2018-02-09T19:19:26.398Z,63.72
2018-02-09T19:21:54.681Z,62.67
2018-02-09T19:24:22.954Z,63.58
2018-02-09T19:26:51.219Z,64.62
2018-02-09T19:29:20.260Z,73.53
2018-02-09T19:31:48.532Z,62.55
2018-02-09T19:34:17.561Z,63.15
2018-02-09T19:36:45.823Z,63.33
2018-02-09T19:39:14.097Z,69.10
2018-02-09T19:41:43.140Z,67.50
2018-02-09T19:44:11.420Z,57.05
2018-02-09T19:46:39.704Z,53.85
2018-02-09T19:49:07.963Z,55.88
2018-02-09T19:51:37.004Z,58.67
2018-02-09T19:54:05.273Z,59.85
2018-02-09T19:56:34.317Z,59.80
2018-02-09T19:59:02.588Z,57.05
2018-02-09T20:01:30.905Z,54.92
2018-02-09T20:03:59.887Z,53.67
2018-02-09T20:06:28.152Z,59.28
2018-02-09T20:08:56.421Z,54.78
2018-02-09T20:11:25.468Z,55.97
2018-02-09T20:13:53.742Z,57.33
2018-02-09T20:16:22.017Z,59.38
2018-02-09T20:18:51.053Z,57.40
2018-02-09T20:21:19.322Z,59.55
2018-02-09T20:23:47.597Z,62.83
2018-02-09T20:26:16.637Z,57.70
2018-02-09T20:28:44.909Z,61.58
2018-02-09T20:31:13.192Z,55.42
2018-02-09T20:33:42.208Z,55.67
2018-02-09T20:36:10.488Z,55.05
2018-02-09T20:38:38.752Z,57.05
2018-02-09T20:41:07.801Z,54.40
2018-02-09T20:43:36.061Z,53.28
2018-02-09T20:46:05.114Z,54.10
2018-02-09T20:48:33.393Z,57.75
2018-02-09T20:51:01.663Z,53.42
2018-02-09T20:53:29.929Z,55.45
2018-02-09T20:55:58.961Z,59.45
2018-02-09T20:58:27.219Z,57.33
2018-02-09T21:00:56.256Z,59.50
2018-02-09T21:03:24.541Z,60.25
2018-02-09T21:05:52.812Z,54.75
2018-02-09T21:08:21.844Z,55.45
2018-02-09T21:10:50.108Z,56.63
2018-02-09T21:13:18.379Z,55.17
2018-02-09T21:15:47.411Z,56.42
2018-02-09T21:18:15.683Z,54.53
2018-02-09T21:20:44.716Z,49.65
2018-02-09T21:23:12.982Z,46.15
2018-02-09T21:25:41.252Z,46.80
2018-02-09T21:28:10.291Z,48.40
2018-02-09T21:30:38.548Z,53.35
2018-02-09T21:33:07.592Z,52.17
2018-02-09T21:35:35.864Z,48.38
2018-02-09T21:38:04.193Z,51.72
2018-02-09T21:40:32.451Z,52.08
2018-02-09T21:43:01.525Z,52.60
2018-02-09T21:45:30.552Z,53.05
2018-02-09T21:47:58.835Z,55.42
2018-02-09T21:50:27.855Z,54.85
2018-02-09T21:52:56.132Z,47.67
2018-02-09T21:55:24.404Z,52.40
2018-02-09T21:57:53.458Z,55.17
2018-02-09T22:00:21.720Z,53.22
2018-02-09T22:02:49.996Z,53.05
2018-02-09T22:05:19.041Z,55.10
2018-02-09T22:07:47.306Z,54.40
2018-02-09T22:10:15.580Z,51.08
2018-02-09T22:12:44.622Z,47.05
2018-02-09T22:15:13.647Z,40.95
2018-02-09T22:17:41.921Z,38.50
2018-02-09T22:20:10.172Z,41.22
2018-02-09T22:22:39.208Z,45.25
2018-02-09T22:25:07.466Z,46.03
2018-02-09T22:27:35.745Z,45.25
2018-02-09T22:30:04.785Z,47.20
2018-02-09T22:32:33.057Z,49.38
2018-02-09T22:35:01.317Z,45.85
2018-02-09T22:37:29.588Z,46.97
2018-02-09T22:39:57.852Z,44.70
2018-02-09T22:42:26.118Z,43.35
2018-02-09T22:44:54.379Z,38.10
2018-02-09T22:47:23.421Z,43.83
2018-02-09T22:49:51.693Z,38.65
2018-02-09T22:52:19.968Z,36.10
2018-02-09T22:54:48.996Z,39.40
2018-02-09T22:57:17.264Z,39.53
2018-02-09T22:59:46.292Z,38.60
2018-02-09T23:02:14.559Z,41.35
2018-02-09T23:04:42.823Z,43.22
2018-02-09T23:07:11.111Z,39.78
2018-02-09T23:09:39.372Z,38.60
2018-02-09T23:12:07.653Z,45.75
2018-02-09T23:14:35.925Z,41.28
2018-02-09T23:17:04.199Z,38.38
2018-02-09T23:19:32.456Z,43.25
2018-02-09T23:22:01.496Z,43.20
2018-02-09T23:24:29.763Z,41.75
2018-02-09T23:26:58.805Z,42.88
2018-02-09T23:29:27.064Z,45.92
2018-02-09T23:31:55.331Z,41.35
2018-02-09T23:34:24.424Z,43.58
2018-02-09T23:36:52.650Z,43.15
2018-02-09T23:39:20.920Z,41.25
2018-02-09T23:41:49.976Z,41.95
2018-02-09T23:44:18.251Z,44.22
2018-02-09T23:46:46.529Z,43.30
2018-02-09T23:49:14.809Z,42.35
2018-02-09T23:51:43.071Z,45.47
2018-02-09T23:54:11.347Z,41.55
2018-02-09T23:56:39.616Z,41.22
2018-02-09T23:59:07.897Z,42.78
